createdAt,value
2022-11-13T00:00:00.941Z,5.87
2022-11-13T00:02:48.121Z,6.40
2022-11-13T00:05:34.707Z,5.60
2022-11-13T00:08:21.366Z,5.67
2022-11-13T00:11:18.170Z,5.67
2022-11-13T00:14:06.989Z,6.10
2022-11-13T00:16:53.757Z,6.30
2022-11-13T00:19:40.753Z,5.90
2022-11-13T00:22:27.683Z,5.83
2022-11-13T00:25:14.629Z,5.77
2022-11-13T00:28:01.761Z,5.90
2022-11-13T00:30:50.056Z,6.30
2022-11-13T00:34:05.215Z,5.57
2022-11-13T00:36:43.316Z,5.23
2022-11-13T00:39:30.274Z,5.13
2022-11-13T00:42:17.083Z,5.20
2022-11-13T00:45:03.977Z,5.37
2022-11-13T00:47:52.264Z,5.80
2022-11-13T00:50:38.932Z,4.80
2022-11-13T00:53:25.559Z,5.47
2022-11-13T00:56:12.529Z,5.20
2022-11-13T00:58:59.200Z,5.60
2022-11-13T01:01:45.985Z,4.80
2022-11-13T01:04:34.557Z,5.33
2022-11-13T01:07:21.192Z,5.87
2022-11-13T01:10:09.602Z,5.77
2022-11-13T01:12:56.378Z,5.53
2022-11-13T01:15:45.393Z,6.40
2022-11-13T01:18:32.387Z,5.60
2022-11-13T01:21:25.191Z,5.70
2022-11-13T01:24:11.935Z,6.20
2022-11-13T01:26:58.958Z,4.63
2022-11-13T01:29:45.471Z,6.10
2022-11-13T01:32:32.571Z,5.60
2022-11-13T01:35:19.611Z,5.57
2022-11-13T01:38:07.544Z,5.13
2022-11-13T01:40:54.243Z,5.17
2022-11-13T01:43:40.865Z,6.03
2022-11-13T01:46:31.259Z,5.20
2022-11-13T01:49:30.042Z,5.80
2022-11-13T01:52:21.979Z,5.43
2022-11-13T01:55:14.935Z,5.53
2022-11-13T01:58:03.401Z,5.67
2022-11-13T02:00:49.955Z,5.27
2022-11-13T02:03:37.115Z,5.90
2022-11-13T02:06:23.591Z,5.90
2022-11-13T02:09:12.156Z,5.33
2022-11-13T02:12:00.550Z,5.87
2022-11-13T02:14:53.336Z,5.50
2022-11-13T02:17:46.368Z,5.73
2022-11-13T02:20:46.089Z,5.83
2022-11-13T02:23:44.982Z,5.50
2022-11-13T02:26:34.153Z,6.10
2022-11-13T02:29:20.880Z,5.47
2022-11-13T02:32:07.422Z,5.87
2022-11-13T02:34:54.260Z,5.80
2022-11-13T02:37:40.853Z,5.87
2022-11-13T02:40:29.132Z,5.73
2022-11-13T02:43:17.578Z,5.30
2022-11-13T02:46:04.579Z,4.90
2022-11-13T02:48:51.453Z,5.17
2022-11-13T02:51:38.202Z,5.47
2022-11-13T02:54:25.178Z,5.73
2022-11-13T02:57:11.825Z,5.50
2022-11-13T03:00:00.425Z,5.50
2022-11-13T03:02:48.713Z,5.50
2022-11-13T03:05:35.306Z,5.43
2022-11-13T03:08:24.041Z,5.43
2022-11-13T03:11:12.292Z,5.70
2022-11-13T03:13:59.136Z,5.33
2022-11-13T03:16:47.454Z,5.47
2022-11-13T03:19:34.111Z,5.93
2022-11-13T03:22:20.935Z,5.90
2022-11-13T03:25:10.964Z,5.43
2022-11-13T03:27:58.344Z,5.23
2022-11-13T03:30:44.630Z,6.23
2022-11-13T03:33:33.462Z,6.40
2022-11-13T03:36:20.075Z,5.93
2022-11-13T03:39:06.660Z,6.27
2022-11-13T03:41:53.330Z,6.07
2022-11-13T03:44:40.139Z,5.00
2022-11-13T03:47:26.983Z,6.00
2022-11-13T03:50:15.262Z,5.80
2022-11-13T03:53:01.941Z,6.07
2022-11-13T03:55:48.892Z,5.47
2022-11-13T03:58:39.980Z,6.00
2022-11-13T04:01:26.940Z,5.70
2022-11-13T04:04:13.870Z,5.73
2022-11-13T04:07:02.116Z,5.77
2022-11-13T04:09:48.465Z,6.13
2022-11-13T04:12:36.210Z,5.70
2022-11-13T04:15:23.957Z,5.70
2022-11-13T04:18:10.411Z,4.73
2022-11-13T04:21:01.168Z,5.43
2022-11-13T04:23:49.020Z,5.10
2022-11-13T04:26:35.632Z,5.67
2022-11-13T04:29:22.310Z,5.03
2022-11-13T04:32:09.190Z,5.27
2022-11-13T04:34:55.987Z,5.30
2022-11-13T04:37:43.119Z,5.23
2022-11-13T04:40:31.344Z,5.23
2022-11-13T04:43:17.211Z,5.10
2022-11-13T04:46:03.889Z,5.30
2022-11-13T04:48:50.437Z,5.40
2022-11-13T04:51:37.345Z,5.33
2022-11-13T04:54:28.492Z,4.90
2022-11-13T04:57:17.929Z,5.13
2022-11-13T05:00:07.495Z,5.20
2022-11-13T05:02:54.632Z,5.20
2022-11-13T05:05:41.740Z,5.40
2022-11-13T05:08:28.769Z,4.93
2022-11-13T05:11:15.913Z,4.97
2022-11-13T05:14:05.457Z,4.70
2022-11-13T05:16:52.012Z,4.90
2022-11-13T05:19:39.476Z,4.50
2022-11-13T05:22:28.434Z,4.37
2022-11-13T05:25:15.393Z,4.90
2022-11-13T05:28:02.813Z,5.63
2022-11-13T05:30:52.526Z,5.57
2022-11-13T05:33:41.138Z,4.90
2022-11-13T05:36:28.533Z,5.00
2022-11-13T05:39:15.269Z,5.10
2022-11-13T05:42:01.720Z,4.60
2022-11-13T05:44:48.584Z,5.07
2022-11-13T05:47:36.937Z,5.20
2022-11-13T05:50:23.888Z,4.70
2022-11-13T05:53:10.710Z,5.20
2022-11-13T05:56:02.126Z,4.97
2022-11-13T05:58:50.580Z,5.03
2022-11-13T06:01:40.031Z,4.77
2022-11-13T06:04:28.128Z,4.93
2022-11-13T06:07:14.725Z,4.90
2022-11-13T06:10:01.841Z,4.53
2022-11-13T06:12:48.801Z,4.40
2022-11-13T06:15:35.653Z,5.23
2022-11-13T06:18:26.604Z,4.87
2022-11-13T06:21:18.033Z,4.57
2022-11-13T06:24:05.932Z,4.63
2022-11-13T06:26:53.634Z,4.80
2022-11-13T06:29:40.407Z,4.43
2022-11-13T06:32:27.054Z,5.03
2022-11-13T06:35:13.850Z,4.70
2022-11-13T06:38:01.970Z,4.53
2022-11-13T06:40:48.754Z,4.87
2022-11-13T06:43:35.932Z,4.73
2022-11-13T06:46:25.525Z,5.17
2022-11-13T06:49:11.941Z,4.40
2022-11-13T06:51:58.667Z,4.57
2022-11-13T06:54:46.857Z,5.07
2022-11-13T06:57:33.793Z,4.83
2022-11-13T07:00:20.707Z,4.87
2022-11-13T07:03:07.546Z,4.27
2022-11-13T07:05:54.162Z,4.53
2022-11-13T07:08:42.348Z,5.10
2022-11-13T07:11:30.939Z,4.77
2022-11-13T07:14:17.985Z,4.80
2022-11-13T07:17:09.637Z,5.07
2022-11-13T07:19:57.022Z,4.00
2022-11-13T07:22:43.884Z,4.77
2022-11-13T07:25:31.953Z,4.83
2022-11-13T07:28:20.137Z,4.83
2022-11-13T07:31:07.968Z,4.63
2022-11-13T07:33:54.695Z,4.80
2022-11-13T07:36:41.685Z,5.37
2022-11-13T07:39:28.524Z,4.87
2022-11-13T07:42:15.203Z,5.10
2022-11-13T07:45:03.534Z,4.73
2022-11-13T07:47:50.393Z,5.17
2022-11-13T07:50:39.373Z,4.97
2022-11-13T07:53:25.986Z,5.23
2022-11-13T07:56:12.628Z,4.47
2022-11-13T07:58:59.280Z,4.50
2022-11-13T08:01:47.531Z,5.13
2022-11-13T08:04:34.463Z,4.93
2022-11-13T08:07:21.471Z,4.97
2022-11-13T08:10:08.907Z,5.27
2022-11-13T08:13:01.869Z,6.40
2022-11-13T08:15:48.962Z,5.60
2022-11-13T08:18:37.096Z,5.53
2022-11-13T08:21:24.182Z,5.37
2022-11-13T08:24:11.223Z,5.53
2022-11-13T08:26:58.299Z,5.43
2022-11-13T08:29:45.154Z,5.80
2022-11-13T08:32:31.912Z,5.73
2022-11-13T08:35:29.092Z,6.50
2022-11-13T08:38:16.133Z,5.60
2022-11-13T08:41:09.333Z,5.20
2022-11-13T08:43:56.267Z,5.73
2022-11-13T08:46:42.869Z,6.27
2022-11-13T08:49:30.784Z,4.80
2022-11-13T08:52:19.147Z,5.70
2022-11-13T08:55:06.895Z,5.80
2022-11-13T08:57:54.906Z,5.37
2022-11-13T09:00:41.938Z,5.77
2022-11-13T09:03:28.919Z,5.10
2022-11-13T09:06:15.834Z,5.53
2022-11-13T09:09:06.063Z,5.43
2022-11-13T09:11:52.566Z,4.93
2022-11-13T09:14:39.117Z,5.57
2022-11-13T09:17:26.040Z,5.47
2022-11-13T09:20:13.760Z,5.33
2022-11-13T09:23:02.419Z,5.40
2022-11-13T09:25:51.060Z,5.60
2022-11-13T09:28:38.332Z,5.27
2022-11-13T09:31:25.261Z,5.10
2022-11-13T09:34:11.942Z,5.57
2022-11-13T09:36:58.700Z,4.80
2022-11-13T09:39:45.269Z,5.10
2022-11-13T09:42:35.334Z,4.37
2022-11-13T09:45:22.331Z,5.43
2022-11-13T09:48:28.073Z,5.10
2022-11-13T09:51:21.949Z,5.33
2022-11-13T09:54:15.114Z,4.80
2022-11-13T09:57:16.250Z,4.83
2022-11-13T10:00:13.464Z,5.07
2022-11-13T10:03:39.020Z,5.53
2022-11-13T10:06:45.213Z,5.05
2022-11-13T10:09:49.873Z,5.05
2022-11-13T10:12:37.141Z,4.32
2022-11-13T10:15:26.807Z,4.60
2022-11-13T10:18:21.463Z,4.07
2022-11-13T10:21:25.329Z,3.70
2022-11-13T10:24:27.296Z,3.38
2022-11-13T10:27:16.607Z,3.22
2022-11-13T10:30:04.068Z,3.17
2022-11-13T10:32:52.438Z,3.45
2022-11-13T10:35:50.961Z,3.35
2022-11-13T10:38:44.768Z,3.15
2022-11-13T10:41:32.020Z,3.47
2022-11-13T10:44:31.430Z,3.40
2022-11-13T10:47:48.913Z,3.50
2022-11-13T10:50:33.918Z,3.42
2022-11-13T10:53:22.138Z,3.40
2022-11-13T10:56:30.666Z,2.95
2022-11-13T10:59:20.322Z,2.78
2022-11-13T11:02:24.906Z,2.70
2022-11-13T11:05:20.275Z,3.05
2022-11-13T11:08:12.010Z,2.80
2022-11-13T11:11:19.468Z,3.50
2022-11-13T11:14:21.061Z,3.40
2022-11-13T11:17:10.352Z,2.90
2022-11-13T11:20:04.750Z,3.58
2022-11-13T11:23:00.400Z,3.03
2022-11-13T11:25:56.793Z,2.83
2022-11-13T11:28:48.768Z,2.90
2022-11-13T11:31:46.306Z,3.13
2022-11-13T11:34:41.954Z,2.72
2022-11-13T11:37:36.391Z,3.00
2022-11-13T11:40:31.839Z,2.72
2022-11-13T11:43:28.354Z,2.50
2022-11-13T11:46:18.255Z,2.80
2022-11-13T11:49:05.188Z,2.92
2022-11-13T11:52:20.669Z,3.03
2022-11-13T11:55:31.956Z,3.00
2022-11-13T11:58:48.568Z,3.17
2022-11-13T12:02:10.228Z,2.95
2022-11-13T12:05:20.156Z,3.13
2022-11-13T12:08:23.055Z,3.08
2022-11-13T12:11:25.605Z,3.10
2022-11-13T12:14:22.299Z,2.88
2022-11-13T12:17:28.689Z,2.90
2022-11-13T12:20:30.413Z,3.05
2022-11-13T12:23:37.422Z,2.95
2022-11-13T12:26:31.814Z,3.20
2022-11-13T12:29:42.355Z,2.92
2022-11-13T12:33:02.788Z,3.00
2022-11-13T12:35:53.885Z,2.72
2022-11-13T12:38:49.963Z,3.30
2022-11-13T12:41:48.585Z,3.35
2022-11-13T12:44:52.421Z,2.72
2022-11-13T12:47:39.423Z,2.90
2022-11-13T12:50:32.423Z,3.30
2022-11-13T12:53:28.124Z,3.30
2022-11-13T12:56:32.948Z,2.90
2022-11-13T12:59:35.086Z,2.72
2022-11-13T13:02:41.022Z,2.50
2022-11-13T13:05:54.262Z,2.97
2022-11-13T13:09:06.616Z,2.20
2022-11-13T13:12:05.466Z,2.60
2022-11-13T13:15:14.030Z,2.10
2022-11-13T13:18:12.351Z,1.88
2022-11-13T13:21:10.870Z,1.58
2022-11-13T13:24:09.386Z,1.90
2022-11-13T13:26:56.619Z,2.10
2022-11-13T13:29:43.342Z,1.85
2022-11-13T13:32:49.780Z,1.88
2022-11-13T13:35:47.796Z,1.92
2022-11-13T13:38:51.940Z,1.92
2022-11-13T13:42:17.431Z,1.75
2022-11-13T13:45:44.542Z,1.80
2022-11-13T13:48:33.004Z,2.20
2022-11-13T13:51:29.068Z,2.50
2022-11-13T13:54:22.554Z,2.47
2022-11-13T13:57:16.377Z,2.20
2022-11-13T14:00:03.596Z,2.10
2022-11-13T14:02:53.363Z,2.20
2022-11-13T14:05:40.266Z,1.95
2022-11-13T14:08:29.370Z,1.70
2022-11-13T14:11:22.711Z,1.70
2022-11-13T14:14:11.443Z,1.73
2022-11-13T14:17:01.600Z,1.67
2022-11-13T14:19:51.341Z,1.45
2022-11-13T14:22:39.274Z,1.58
2022-11-13T14:25:53.527Z,1.48
2022-11-13T14:28:55.651Z,1.40
2022-11-13T14:31:53.397Z,1.38
2022-11-13T14:34:45.149Z,1.30
2022-11-13T14:37:37.179Z,1.30
2022-11-13T14:40:27.160Z,1.20
2022-11-13T14:43:22.103Z,1.23
2022-11-13T14:46:30.084Z,1.50
2022-11-13T14:49:28.775Z,1.50
2022-11-13T14:52:23.662Z,1.50
2022-11-13T14:55:23.755Z,1.70
2022-11-13T14:58:14.910Z,1.48
2022-11-13T15:01:17.264Z,1.30
2022-11-13T15:04:04.685Z,1.50
2022-11-13T15:06:55.685Z,1.20
2022-11-13T15:09:42.599Z,1.25
2022-11-13T15:12:30.246Z,1.27
2022-11-13T15:15:20.639Z,1.50
2022-11-13T15:18:16.262Z,1.27
2022-11-13T15:21:03.293Z,1.23
2022-11-13T15:23:49.911Z,1.73
2022-11-13T15:26:36.602Z,1.40
2022-11-13T15:29:23.354Z,1.63
2022-11-13T15:32:12.782Z,1.80
2022-11-13T15:35:00.727Z,1.88
2022-11-13T15:37:47.436Z,1.90
2022-11-13T15:40:34.529Z,1.75
2022-11-13T15:43:21.490Z,1.83
2022-11-13T15:46:14.676Z,2.00
2022-11-13T15:49:01.526Z,1.90
2022-11-13T15:51:49.743Z,2.05
2022-11-13T15:54:39.555Z,1.77
2022-11-13T15:57:28.958Z,2.28
2022-11-13T16:00:18.377Z,2.20
2022-11-13T16:03:11.299Z,1.83
2022-11-13T16:05:59.182Z,2.40
2022-11-13T16:08:48.471Z,2.30
2022-11-13T16:11:36.027Z,2.00
2022-11-13T16:14:24.949Z,1.98
2022-11-13T16:17:16.451Z,2.25
2022-11-13T16:20:07.424Z,2.28
2022-11-13T16:22:54.950Z,2.20
2022-11-13T16:25:42.806Z,2.50
2022-11-13T16:28:31.654Z,2.10
2022-11-13T16:31:24.720Z,2.15
2022-11-13T16:34:11.558Z,2.20
2022-11-13T16:36:58.374Z,2.33
2022-11-13T16:39:45.875Z,2.28
2022-11-13T16:42:33.911Z,2.00
2022-11-13T16:45:22.119Z,1.73
2022-11-13T16:48:14.273Z,1.95
2022-11-13T16:51:01.204Z,1.80
2022-11-13T16:53:48.115Z,2.15
2022-11-13T16:56:34.671Z,1.88
2022-11-13T16:59:23.210Z,1.80
2022-11-13T17:02:18.346Z,1.83
2022-11-13T17:05:06.175Z,2.10
2022-11-13T17:07:59.302Z,2.13
2022-11-13T17:10:45.861Z,1.63
2022-11-13T17:13:32.690Z,1.77
2022-11-13T17:16:22.243Z,1.92
2022-11-13T17:19:12.632Z,1.88
2022-11-13T17:21:59.350Z,2.20
2022-11-13T17:24:46.219Z,1.63
2022-11-13T17:27:33.020Z,2.28
2022-11-13T17:30:20.529Z,1.90
2022-11-13T17:33:08.310Z,1.83
2022-11-13T17:35:56.358Z,2.10
2022-11-13T17:38:43.262Z,2.03
2022-11-13T17:41:32.703Z,1.98
2022-11-13T17:44:20.065Z,1.83
2022-11-13T17:47:06.661Z,2.15
2022-11-13T17:49:55.965Z,2.10
2022-11-13T17:52:43.024Z,2.10
2022-11-13T17:55:29.728Z,2.00
2022-11-13T17:58:16.455Z,2.08
2022-11-13T18:01:10.001Z,1.70
2022-11-13T18:03:57.299Z,2.17
2022-11-13T18:06:45.305Z,2.35
2022-11-13T18:09:31.805Z,2.60
2022-11-13T18:12:18.562Z,2.35
2022-11-13T18:15:06.464Z,2.60
2022-11-13T18:17:53.010Z,2.50
2022-11-13T18:20:42.010Z,3.20
2022-11-13T18:23:30.394Z,2.63
2022-11-13T18:26:20.076Z,2.95
2022-11-13T18:29:07.166Z,2.45
2022-11-13T18:31:53.960Z,2.90
2022-11-13T18:34:41.022Z,3.10
2022-11-13T18:37:27.776Z,3.00
2022-11-13T18:40:15.860Z,3.40
2022-11-13T18:43:02.591Z,3.40
2022-11-13T18:45:57.942Z,3.20
2022-11-13T18:48:46.372Z,3.20
2022-11-13T18:51:35.412Z,3.00
2022-11-13T18:54:22.159Z,3.00
2022-11-13T18:57:10.237Z,3.10
2022-11-13T18:59:57.025Z,3.13
2022-11-13T19:02:43.482Z,3.22
2022-11-13T19:05:30.161Z,3.38
2022-11-13T19:08:17.757Z,3.60
2022-11-13T19:11:07.120Z,3.90
2022-11-13T19:13:55.093Z,4.00
2022-11-13T19:16:42.359Z,4.10
2022-11-13T19:19:29.241Z,4.40
2022-11-13T19:22:15.850Z,4.87
2022-11-13T19:25:03.455Z,4.40
2022-11-13T19:27:50.217Z,4.37
2022-11-13T19:30:38.270Z,4.47
2022-11-13T19:33:27.446Z,5.10
2022-11-13T19:36:18.633Z,4.67
2022-11-13T19:39:06.016Z,5.03
2022-11-13T19:41:52.950Z,5.47
2022-11-13T19:44:39.773Z,5.43
2022-11-13T19:47:27.994Z,5.00
2022-11-13T19:50:15.146Z,5.40
2022-11-13T19:53:02.073Z,5.20
2022-11-13T19:55:55.970Z,5.63
2022-11-13T19:58:44.386Z,6.57
2022-11-13T20:01:32.871Z,6.27
2022-11-13T20:04:21.054Z,6.23
2022-11-13T20:07:07.783Z,5.87
2022-11-13T20:09:54.427Z,6.47
2022-11-13T20:12:41.018Z,6.33
2022-11-13T20:15:27.890Z,6.67
2022-11-13T20:18:15.202Z,7.10
2022-11-13T20:21:03.488Z,6.57
2022-11-13T20:23:50.647Z,6.57
2022-11-13T20:26:37.502Z,6.70
2022-11-13T20:29:24.268Z,6.30
2022-11-13T20:32:10.959Z,7.50
2022-11-13T20:34:57.883Z,6.60
2022-11-13T20:37:45.707Z,6.40
2022-11-13T20:40:32.746Z,6.23
2022-11-13T20:43:19.551Z,7.07
2022-11-13T20:46:08.419Z,7.67
2022-11-13T20:48:54.917Z,7.77
2022-11-13T20:51:41.676Z,7.67
2022-11-13T20:54:29.457Z,7.70
2022-11-13T20:57:17.965Z,7.87
2022-11-13T21:00:05.759Z,7.33
2022-11-13T21:02:52.597Z,8.63
2022-11-13T21:05:38.963Z,7.70
2022-11-13T21:08:26.503Z,7.83
2022-11-13T21:11:19.411Z,7.00
2022-11-13T21:14:06.449Z,7.77
2022-11-13T21:16:52.882Z,8.10
2022-11-13T21:19:39.357Z,8.03
2022-11-13T21:22:26.252Z,7.50
2022-11-13T21:25:13.217Z,7.93
2022-11-13T21:28:01.236Z,8.40
2022-11-13T21:30:47.979Z,8.90
2022-11-13T21:33:38.480Z,8.37
2022-11-13T21:36:27.489Z,8.10
2022-11-13T21:39:14.148Z,7.93
2022-11-13T21:42:00.613Z,8.97
2022-11-13T21:44:48.264Z,8.30
2022-11-13T21:47:34.759Z,8.37
2022-11-13T21:50:21.463Z,7.57
2022-11-13T21:53:07.982Z,7.73
2022-11-13T21:55:54.497Z,7.97
2022-11-13T21:58:42.256Z,8.43
2022-11-13T22:01:37.817Z,6.87
2022-11-13T22:04:25.700Z,8.63
2022-11-13T22:07:12.496Z,8.93
2022-11-13T22:09:59.596Z,7.80
2022-11-13T22:12:48.540Z,8.23
2022-11-13T22:15:35.099Z,7.50
2022-11-13T22:18:23.392Z,8.63
2022-11-13T22:21:12.741Z,8.10
2022-11-13T22:24:00.738Z,8.23
2022-11-13T22:26:48.363Z,7.47
2022-11-13T22:29:35.016Z,7.87
2022-11-13T22:32:21.388Z,8.10
2022-11-13T22:35:10.377Z,8.60
2022-11-13T22:37:56.924Z,7.50
2022-11-13T22:40:43.852Z,8.00
2022-11-13T22:43:34.904Z,8.40
2022-11-13T22:46:25.898Z,8.10
2022-11-13T22:49:13.445Z,8.10
2022-11-13T22:52:01.330Z,8.40
2022-11-13T22:54:48.171Z,8.60
2022-11-13T22:57:34.742Z,7.87
2022-11-13T23:00:21.795Z,8.93
2022-11-13T23:03:08.381Z,8.13
2022-11-13T23:05:54.997Z,8.67
2022-11-13T23:08:43.383Z,7.77
2022-11-13T23:11:32.768Z,7.53
2022-11-13T23:14:19.228Z,7.10
2022-11-13T23:17:05.655Z,6.90
2022-11-13T23:19:52.173Z,7.70
2022-11-13T23:22:38.610Z,8.60
2022-11-13T23:25:26.490Z,7.57
2022-11-13T23:28:13.128Z,6.83
2022-11-13T23:30:59.965Z,7.57
2022-11-13T23:33:46.405Z,7.77
2022-11-13T23:36:33.130Z,7.70
2022-11-13T23:39:19.953Z,8.00
2022-11-13T23:42:07.788Z,7.03
2022-11-13T23:44:54.461Z,8.30
2022-11-13T23:47:41.226Z,7.00
2022-11-13T23:50:28.560Z,7.03
2022-11-13T23:53:15.660Z,6.97
2022-11-13T23:56:02.670Z,7.10
2022-11-13T23:58:53.081Z,7.80
